»·PEaware :: N486JG KTOA-KSNA

N486JG :: KTOA-KSNA

FLIGHT INFORMATION

Flight Status: Arrived
Operator: Privately registered:
United States
More flights under this callsign
Pilot: Bill D. (15249)
Aircraft: CESSNA 172 SKYHAWK
(C172)
More flights by this aircraft type
Origin: KTOA Zamperini
United States
Destination: KSNA John Wayne-Orange Co
United States
More flights between these airports :: More routes between these airports
Route: + VPLSR-KLAX-KSMO-KVNY-STOP-SMO-LAX-FERMY-VPLHP
File this flight plan on PilotEdge
Remarks: CAT-10
Altitude:
(Current/Filed)
2,500ft
Speed:
(Current/Filed)
110kts
Departed: 16-Apr-18 11:58 AM
Arrived: 16-Apr-18 01:37 PM
Distance/Time
Traveled:
25nm/1:39
Distance/Time
To Go:
Arrived

Flight Plot

Page will automatically refresh every two minutes.

Flight plan parsing failed; only flown route is shown


Map Options




Map Legend


Flown Route
Filed Route
Departure Airport
Arrival Airport
Navaid (VOR, NDB)
Fix

Horizontal Profiles

Position Reports

Time Latitude Longitude Heading Altitude Ground
Speed
16-Apr-18 11:46 33.803347 -118.344051 39 107ft 0kts
16-Apr-18 11:47 33.803347 -118.344051 39 107ft 0kts
16-Apr-18 11:48 33.803347 -118.344051 39 107ft 0kts
16-Apr-18 11:49 33.802195 -118.342023 132 107ft 18kts
16-Apr-18 11:50 33.798633 -118.336599 125 107ft 21kts
16-Apr-18 11:51 33.797977 -118.334282 352 107ft 2kts
16-Apr-18 11:52 33.799031 -118.333371 38 107ft 0kts
16-Apr-18 11:53 33.799031 -118.333371 38 107ft 0kts
16-Apr-18 11:54 33.799031 -118.333371 38 107ft 0kts
16-Apr-18 11:55 33.799031 -118.333372 38 107ft 0kts
16-Apr-18 11:56 33.799442 -118.333009 19 107ft 5kts
16-Apr-18 11:57 33.807600 -118.344553 313 651ft 62kts
16-Apr-18 11:58 33.823399 -118.346345 5 1612ft 58kts
16-Apr-18 11:59 33.839274 -118.344825 359 2479ft 57kts
16-Apr-18 12:00 33.866243 -118.344810 356 2484ft 98kts
16-Apr-18 12:01 33.890404 -118.348418 352 2487ft 86kts
16-Apr-18 12:02 33.911287 -118.348035 67 2482ft 87kts
16-Apr-18 12:03 33.896875 -118.337934 233 2485ft 87kts
16-Apr-18 12:04 33.909897 -118.353459 1 2487ft 87kts
16-Apr-18 12:05 33.921387 -118.336353 129 2482ft 87kts
16-Apr-18 12:06 33.900551 -118.321499 151 2487ft 88kts
16-Apr-18 12:07 33.879482 -118.319384 244 2485ft 88kts
16-Apr-18 12:08 33.893225 -118.338713 295 2486ft 87kts
16-Apr-18 12:09 33.905653 -118.362847 329 2484ft 88kts
16-Apr-18 12:10 33.916212 -118.346840 127 2485ft 87kts
16-Apr-18 12:11 33.897021 -118.351608 259 2485ft 87kts
16-Apr-18 12:12 33.914138 -118.367519 344 2484ft 87kts
16-Apr-18 12:13 33.936294 -118.379426 330 2487ft 87kts
16-Apr-18 12:14 33.958485 -118.394202 331 2488ft 100kts
16-Apr-18 12:15 33.984177 -118.411233 331 2487ft 108kts
16-Apr-18 12:16 34.009993 -118.429854 324 2487ft 108kts
16-Apr-18 12:17 34.034724 -118.450834 324 2487ft 108kts
16-Apr-18 12:18 34.060038 -118.470698 337 2486ft 108kts
16-Apr-18 12:19 34.087969 -118.484357 338 2487ft 108kts
16-Apr-18 12:20 34.117136 -118.484342 348 2487ft 108kts
16-Apr-18 12:21 34.144749 -118.488662 356 2324ft 86kts
16-Apr-18 12:22 34.170414 -118.492428 339 1833ft 87kts
16-Apr-18 12:23 34.195214 -118.499209 354 1833ft 95kts
16-Apr-18 12:24 34.220327 -118.501974 356 1467ft 85kts
16-Apr-18 12:25 34.219529 -118.491151 182 910ft 79kts
16-Apr-18 12:26 34.202222 -118.489575 177 804ft 47kts
16-Apr-18 12:27 34.197884 -118.490112 357 804ft 19kts
16-Apr-18 12:28 34.202524 -118.490832 310 804ft 8kts
16-Apr-18 12:29 34.203060 -118.491226 357 804ft 0kts
16-Apr-18 12:30 34.203060 -118.491226 357 804ft 0kts
16-Apr-18 12:31 34.203060 -118.491226 357 804ft 0kts
16-Apr-18 12:32 34.203060 -118.491226 357 804ft 0kts
16-Apr-18 12:33 34.203060 -118.491226 357 804ft 0kts
16-Apr-18 12:34 34.203060 -118.491226 357 804ft 0kts
16-Apr-18 12:35 34.203060 -118.491226 357 804ft 0kts
16-Apr-18 12:36 34.203060 -118.491226 357 804ft 0kts
16-Apr-18 12:37 34.203060 -118.491226 357 804ft 0kts
16-Apr-18 12:38 34.203060 -118.491226 357 804ft 0kts
16-Apr-18 12:39 34.203060 -118.491226 357 804ft 0kts
16-Apr-18 12:40 34.207297 -118.491400 356 804ft 26kts
16-Apr-18 12:41 34.213817 -118.491948 355 804ft 19kts
16-Apr-18 12:42 34.218219 -118.492360 355 804ft 9kts
16-Apr-18 12:43 34.218661 -118.492212 47 804ft 0kts
16-Apr-18 12:44 34.218661 -118.492212 47 804ft 0kts
16-Apr-18 12:45 34.218720 -118.492103 64 804ft 5kts
16-Apr-18 12:46 34.207952 -118.490234 172 920ft 98kts
16-Apr-18 12:47 34.184918 -118.494017 206 2048ft 84kts
16-Apr-18 12:48 34.166911 -118.508689 207 3023ft 85kts
16-Apr-18 12:49 34.147147 -118.520848 202 3989ft 79kts
16-Apr-18 12:50 34.112961 -118.529371 141 3002ft 147kts
16-Apr-18 12:51 34.081915 -118.500239 166 2499ft 138kts
16-Apr-18 12:52 34.053090 -118.495769 164 3617ft 90kts
16-Apr-18 12:53 34.038258 -118.504109 306 4524ft 85kts
16-Apr-18 12:54 34.045433 -118.491774 155 5305ft 86kts
16-Apr-18 12:55 34.019332 -118.478746 149 5532ft 122kts
16-Apr-18 12:56 33.989374 -118.456461 148 5530ft 128kts
16-Apr-18 12:57 33.968988 -118.426354 80 5531ft 128kts
16-Apr-18 12:58 33.992165 -118.404299 355 5530ft 128kts
16-Apr-18 12:59 34.015424 -118.432234 318 5528ft 128kts
16-Apr-18 13:00 34.042128 -118.468493 293 4449ft 144kts
16-Apr-18 13:01 34.065564 -118.498821 346 2985ft 130kts
16-Apr-18 13:02 34.093896 -118.510553 341 2961ft 103kts
16-Apr-18 13:03 34.121229 -118.521825 341 2961ft 104kts
16-Apr-18 13:04 34.148751 -118.533161 341 2961ft 104kts
16-Apr-18 13:05 34.163807 -118.556529 261 2962ft 118kts
16-Apr-18 13:06 34.161973 -118.580976 323 4220ft 67kts
16-Apr-18 13:07 34.161324 -118.590219 121 4938ft 80kts
16-Apr-18 13:08 34.145934 -118.574119 141 5513ft 104kts
16-Apr-18 13:09 34.119838 -118.548840 141 5506ft 127kts
16-Apr-18 13:10 34.091873 -118.522129 146 5505ft 128kts
16-Apr-18 13:11 34.061223 -118.500038 149 5506ft 128kts
16-Apr-18 13:12 34.029929 -118.479071 152 5506ft 128kts
16-Apr-18 13:13 33.997754 -118.460332 155 5506ft 128kts
16-Apr-18 13:14 33.965234 -118.442367 155 5506ft 128kts
16-Apr-18 13:15 33.931061 -118.430545 166 5506ft 128kts
16-Apr-18 13:16 33.896257 -118.420249 157 5505ft 128kts
16-Apr-18 13:17 33.869677 -118.391735 127 5507ft 128kts
16-Apr-18 13:18 33.850021 -118.355871 122 5506ft 128kts
16-Apr-18 13:19 33.827851 -118.322193 132 5506ft 128kts
16-Apr-18 13:20 33.803591 -118.290591 132 5506ft 128kts
16-Apr-18 13:21 33.776323 -118.262779 140 5506ft 128kts
16-Apr-18 13:22 33.748563 -118.235525 140 5506ft 128kts
16-Apr-18 13:23 33.726970 -118.202886 117 5505ft 128kts
16-Apr-18 13:24 33.709643 -118.168094 117 4416ft 121kts
16-Apr-18 13:25 33.695567 -118.132036 114 3110ft 122kts
16-Apr-18 13:26 33.682090 -118.098625 105 2519ft 99kts
16-Apr-18 13:27 33.675812 -118.067325 103 2520ft 95kts
16-Apr-18 13:28 33.668586 -118.035172 104 2522ft 113kts
16-Apr-18 13:29 33.665957 -117.994345 72 2520ft 130kts
16-Apr-18 13:30 33.675321 -117.952072 75 2520ft 131kts
16-Apr-18 13:31 33.680801 -117.917154 114 2140ft 106kts
16-Apr-18 13:32 33.662486 -117.896312 122 1113ft 86kts
16-Apr-18 13:33 33.681398 -117.878068 28 697ft 115kts
16-Apr-18 13:34 33.695653 -117.860000 132 582ft 72kts
16-Apr-18 13:35 33.678900 -117.866791 210 60ft 45kts
16-Apr-18 13:36 33.673173 -117.870430 206 60ft 8kts
16-Apr-18 13:37 33.669031 -117.871239 84 60ft 16kts
16-Apr-18 13:38 33.669700 -117.870282 39 60ft 4kts
16-Apr-18 13:39 33.670094 -117.869865 39 60ft 4kts

Navigation Log

Ident Type
Flight plan parsing failed, navigation log unavailable